Time;durP1;ratioP1;P1;durP2;ratioP2;P2;SDS_P1;SDS_P2;PMS_P1;PMS_P2;Temp;Humidity;BMP_temperature;BMP_pressure;BME280_temperature;BME280_humidity;BME280_pressure;Samples;Min_cycle;Max_cycle;Signal;HPM_P1;HPM_P2
2021/05/24 00:00:34;;;;;;;5.70;2.60;;;19.90;45.70;;;;;;5033102;28;20043;-66
2021/05/24 00:03:00;;;;;;;9.63;3.13;;;20.00;45.90;;;;;;5054158;28;20048;-68
2021/05/24 00:05:28;;;;;;;10.23;3.75;;;19.80;46.40;;;;;;5025636;28;20044;-67
2021/05/24 00:07:54;;;;;;;3.78;2.85;;;19.90;46.90;;;;;;5043730;28;20048;-68
2021/05/24 00:10:23;;;;;;;7.78;3.55;;;19.90;47.70;;;;;;5033900;28;20524;-67
2021/05/24 00:12:51;;;;;;;7.00;3.50;;;19.90;46.80;;;;;;5038251;28;20445;-67
2021/05/24 00:15:22;;;;;;;7.35;3.55;;;19.90;46.80;;;;;;5038572;28;20037;-70
2021/05/24 00:17:48;;;;;;;10.73;3.28;;;19.90;47.40;;;;;;5036657;28;20574;-67
2021/05/24 00:20:15;;;;;;;9.00;3.22;;;19.90;47.50;;;;;;5036356;28;20033;-68
2021/05/24 00:22:41;;;;;;;11.60;2.83;;;19.80;47.40;;;;;;5034976;28;20048;-68
2021/05/24 00:25:09;;;;;;;8.25;3.10;;;19.80;47.70;;;;;;5037130;28;20029;-67
2021/05/24 00:27:34;;;;;;;4.38;3.15;;;19.90;47.80;;;;;;5036025;28;20037;-66
2021/05/24 00:30:00;;;;;;;7.55;3.20;;;19.80;48.20;;;;;;5036402;28;20402;-68
2021/05/24 00:32:26;;;;;;;8.15;3.17;;;19.80;48.10;;;;;;5033110;28;20029;-68
2021/05/24 00:34:52;;;;;;;4.55;2.67;;;19.80;48.30;;;;;;5037419;28;20044;-68
2021/05/24 00:37:18;;;;;;;14.05;3.78;;;19.70;48.50;;;;;;5034930;28;20125;-68
2021/05/24 00:39:44;;;;;;;6.57;3.25;;;19.70;48.80;;;;;;5038520;28;20037;-68
2021/05/24 00:42:10;;;;;;;4.85;3.20;;;19.70;48.80;;;;;;5037231;28;20203;-68
2021/05/24 00:44:36;;;;;;;17.58;4.22;;;19.70;49.00;;;;;;5040193;28;20045;-67
2021/05/24 00:47:02;;;;;;;5.45;3.42;;;19.70;49.00;;;;;;5039594;28;20033;-67
2021/05/24 00:49:31;;;;;;;9.50;3.42;;;19.70;49.20;;;;;;5037427;28;20406;-68
2021/05/24 00:51:57;;;;;;;7.55;3.50;;;19.70;49.00;;;;;;5031790;28;20065;-68
2021/05/24 00:54:24;;;;;;;7.13;3.50;;;19.70;49.10;;;;;;5035094;28;20095;-68
2021/05/24 00:56:52;;;;;;;7.82;3.08;;;19.70;49.40;;;;;;5036830;28;20553;-68
2021/05/24 00:59:18;;;;;;;9.02;3.35;;;19.60;49.30;;;;;;5038006;28;20064;-68
2021/05/24 01:01:44;;;;;;;6.03;3.00;;;19.70;49.20;;;;;;5038980;28;20564;-68
2021/05/24 01:04:10;;;;;;;12.57;3.75;;;19.70;49.40;;;;;;5030354;28;20359;-68
2021/05/24 01:06:35;;;;;;;8.07;3.28;;;19.60;49.40;;;;;;5040868;28;20033;-67
2021/05/24 01:09:01;;;;;;;7.53;3.17;;;19.70;49.40;;;;;;5039742;28;20057;-68
2021/05/24 01:11:27;;;;;;;4.70;3.08;;;19.50;49.60;;;;;;5038932;28;20041;-68
2021/05/24 01:13:53;;;;;;;7.15;3.30;;;19.50;50.00;;;;;;5032942;28;20456;-68
2021/05/24 01:16:19;;;;;;;4.75;2.95;;;19.50;59.30;;;;;;5036069;28;20087;-68
2021/05/24 01:18:45;;;;;;;4.75;2.97;;;19.60;50.20;;;;;;5032677;28;20033;-68
2021/05/24 01:21:12;;;;;;;6.28;3.17;;;19.50;50.10;;;;;;5053340;28;20041;-68
2021/05/24 01:23:43;;;;;;;7.82;3.38;;;19.50;50.20;;;;;;5031326;28;20487;-68
2021/05/24 01:26:09;;;;;;;10.30;3.53;;;19.50;50.30;;;;;;5044027;28;20041;-68
2021/05/24 01:28:35;;;;;;;5.95;3.05;;;19.60;50.20;;;;;;5027649;28;20107;-66
2021/05/24 01:31:02;;;;;;;5.95;2.60;;;19.50;50.00;;;;;;5042973;28;20491;-68
2021/05/24 01:33:28;;;;;;;6.55;2.97;;;19.50;50.10;;;;;;5041427;28;20041;-67
2021/05/24 01:35:53;;;;;;;7.85;3.22;;;19.40;50.50;;;;;;5041663;28;20086;-68
2021/05/24 01:38:20;;;;;;;4.97;2.55;;;19.50;50.40;;;;;;5033523;28;20032;-68
2021/05/24 01:40:47;;;;;;;8.65;3.05;;;19.40;50.50;;;;;;5034391;28;20068;-68
2021/05/24 01:43:14;;;;;;;8.82;3.08;;;19.30;50.40;;;;;;5039860;28;20080;-68
2021/05/24 01:45:40;;;;;;;6.43;2.80;;;19.40;50.30;;;;;;5033788;28;20061;-68
2021/05/24 01:48:06;;;;;;;5.90;3.47;;;19.40;50.50;;;;;;5038683;28;20033;-67
2021/05/24 01:50:33;;;;;;;3.72;2.45;;;19.40;50.50;;;;;;5037432;28;20037;-68
2021/05/24 01:52:58;;;;;;;7.43;2.90;;;19.40;50.70;;;;;;5055122;28;20037;-68
2021/05/24 01:55:24;;;;;;;9.13;3.13;;;19.40;50.80;;;;;;5030324;28;20143;-68
2021/05/24 01:57:50;;;;;;;5.75;2.88;;;19.40;50.90;;;;;;5014491;28;20037;-68
2021/05/24 02:00:19;;;;;;;7.30;3.45;;;19.40;51.00;;;;;;5066747;28;20036;-68
2021/05/24 02:02:45;;;;;;;8.02;3.22;;;19.30;51.80;;;;;;5037066;28;20495;-68
2021/05/24 02:05:13;;;;;;;6.22;2.70;;;19.30;51.10;;;;;;5034505;28;20037;-68
2021/05/24 02:07:39;;;;;;;7.38;3.58;;;19.40;51.00;;;;;;5035753;28;20041;-68
2021/05/24 02:10:08;;;;;;;8.90;3.58;;;19.30;51.10;;;;;;5036042;28;20517;-68
2021/05/24 02:12:34;;;;;;;6.60;3.33;;;19.40;51.50;;;;;;5040534;28;20540;-68
2021/05/24 02:14:59;;;;;;;7.05;3.28;;;19.30;51.70;;;;;;5036142;28;20037;-69
2021/05/24 02:17:25;;;;;;;9.38;2.88;;;19.30;51.90;;;;;;5045949;28;20364;-69
2021/05/24 02:19:52;;;;;;;8.82;2.88;;;19.30;54.20;;;;;;5045412;28;20106;-67
2021/05/24 02:22:24;;;;;;;9.10;3.38;;;19.30;52.70;;;;;;5038334;28;20037;-68
2021/05/24 02:24:49;;;;;;;7.53;3.50;;;19.20;53.20;;;;;;5042971;28;20029;-69
2021/05/24 02:27:15;;;;;;;8.20;3.95;;;19.20;52.50;;;;;;5037729;28;20044;-69
2021/05/24 02:29:41;;;;;;;7.05;3.10;;;19.20;52.60;;;;;;5044040;28;20049;-69
2021/05/24 02:32:25;;;;;;;7.45;3.47;;;19.10;52.70;;;;;;5038029;28;20034;-68
2021/05/24 02:34:51;;;;;;;8.98;3.45;;;19.10;53.50;;;;;;5039951;28;20037;-68
2021/05/24 02:37:17;;;;;;;7.93;3.03;;;19.20;53.20;;;;;;5043535;28;20445;-69
2021/05/24 02:39:42;;;;;;;6.75;3.03;;;19.10;53.20;;;;;;5043258;28;20518;-68
2021/05/24 02:42:08;;;;;;;11.45;4.22;;;19.10;53.30;;;;;;5033694;28;20067;-68
2021/05/24 02:47:56;;;;;;;8.80;3.83;;;19.20;54.30;;;;;;5006333;28;20921;-69
2021/05/24 02:50:24;;;;;;;8.30;3.05;;;19.10;53.20;;;;;;5044005;28;20047;-69
2021/05/24 02:52:52;;;;;;;7.55;3.50;;;19.10;56.80;;;;;;5039385;28;20039;-69
2021/05/24 02:55:17;;;;;;;6.63;3.83;;;19.20;55.50;;;;;;5054419;28;20041;-69
2021/05/24 02:57:44;;;;;;;9.80;3.72;;;19.20;55.40;;;;;;5045884;28;20529;-69
2021/05/24 03:00:10;;;;;;;7.55;2.45;;;19.20;55.60;;;;;;5044554;28;20034;-69
2021/05/24 03:02:44;;;;;;;6.93;3.00;;;19.10;55.50;;;;;;5052805;28;20112;-68
2021/05/24 03:05:11;;;;;;;;;;;19.20;55.60;;;;;;5041948;28;20049;-68
2021/05/24 03:07:37;;;;;;;8.63;2.90;;;18.90;53.50;;;;;;5036020;28;19912;-68
2021/05/24 03:10:03;;;;;;;5.05;3.20;;;19.00;57.40;;;;;;5047728;28;20047;-69
2021/05/24 03:12:29;;;;;;;7.68;3.00;;;18.90;54.00;;;;;;5037040;28;20483;-69
2021/05/24 03:14:54;;;;;;;8.00;2.95;;;19.00;52.40;;;;;;5036572;28;20033;-69
2021/05/24 03:17:20;;;;;;;4.75;2.50;;;19.00;52.30;;;;;;5052547;28;20041;-69
2021/05/24 03:19:46;;;;;;;5.65;2.42;;;19.00;52.00;;;;;;5042791;28;20037;-68
2021/05/24 03:22:11;;;;;;;7.35;2.70;;;19.00;52.40;;;;;;5039398;28;20041;-68
2021/05/24 03:24:38;;;;;;;8.77;2.72;;;19.00;52.00;;;;;;5031765;28;20067;-67
2021/05/24 03:27:04;;;;;;;3.88;2.30;;;18.70;52.10;;;;;;5028298;28;20049;-68
2021/05/24 03:29:30;;;;;;;5.80;2.47;;;;;;;;;;5031171;28;20110;-69
2021/05/24 03:31:56;;;;;;;6.45;2.50;;;18.80;51.70;;;;;;5043980;28;20045;-68
2021/05/24 03:34:21;;;;;;;5.85;2.30;;;18.80;52.00;;;;;;5030173;28;20045;-69
2021/05/24 03:36:47;;;;;;;4.38;2.55;;;18.80;51.90;;;;;;5043723;28;20131;-68
2021/05/24 03:39:13;;;;;;;6.18;2.55;;;18.70;51.80;;;;;;5037916;28;20071;-68
2021/05/24 03:41:39;;;;;;;7.10;3.22;;;18.70;51.80;;;;;;5038645;28;20388;-68
2021/05/24 03:44:05;;;;;;;5.05;2.50;;;18.70;52.50;;;;;;5038386;28;20148;-68
2021/05/24 03:46:30;;;;;;;6.30;2.72;;;18.70;51.90;;;;;;5039561;28;20041;-68
2021/05/24 03:48:59;;;;;;;6.03;2.30;;;18.60;52.00;;;;;;5036338;28;20076;-68
2021/05/24 03:51:37;;;;;;;5.07;2.28;;;18.70;51.80;;;;;;5044046;28;20048;-68
2021/05/24 03:54:03;;;;;;;5.15;2.40;;;18.60;52.10;;;;;;5052272;28;20120;-68
2021/05/24 03:56:28;;;;;;;8.43;2.70;;;18.70;52.40;;;;;;5042184;28;20498;-68
2021/05/24 03:58:54;;;;;;;5.40;2.15;;;18.70;52.10;;;;;;5039607;28;20033;-68
2021/05/24 04:01:20;;;;;;;3.95;2.03;;;18.60;52.00;;;;;;5035067;28;20037;-68
2021/05/24 04:03:46;;;;;;;5.25;2.00;;;18.60;52.10;;;;;;5042783;28;20465;-68
2021/05/24 04:06:15;;;;;;;5.55;2.67;;;18.60;52.00;;;;;;5034069;28;20029;-67
2021/05/24 04:08:45;;;;;;;5.22;2.35;;;18.70;52.00;;;;;;5040471;28;20049;-67
2021/05/24 04:11:11;;;;;;;6.07;3.08;;;18.70;51.60;;;;;;5035479;28;20110;-67
2021/05/24 04:13:37;;;;;;;4.30;2.25;;;18.70;51.70;;;;;;5040280;28;20037;-67
2021/05/24 04:16:03;;;;;;;4.82;2.15;;;18.60;51.60;;;;;;5033845;28;20402;-67
2021/05/24 04:18:32;;;;;;;8.60;2.88;;;18.60;51.60;;;;;;5040560;28;20044;-68
2021/05/24 04:20:59;;;;;;;9.07;2.42;;;18.50;51.60;;;;;;5050797;28;20403;-68
2021/05/24 04:23:26;;;;;;;5.60;2.60;;;18.50;51.90;;;;;;5030175;28;20060;-68
2021/05/24 04:25:51;;;;;;;3.97;2.53;;;18.50;51.70;;;;;;5034876;28;20060;-69
2021/05/24 04:28:17;;;;;;;6.55;2.40;;;18.50;51.80;;;;;;5040649;28;20510;-69
2021/05/24 04:30:43;;;;;;;3.85;1.80;;;18.40;51.70;;;;;;5035441;28;20064;-69
2021/05/24 04:33:09;;;;;;;4.45;2.00;;;18.40;51.90;;;;;;5039533;28;20033;-68
2021/05/24 04:35:36;;;;;;;5.85;2.20;;;18.30;51.70;;;;;;5039518;28;20037;-69
2021/05/24 04:38:02;;;;;;;8.18;2.50;;;18.50;51.70;;;;;;5038677;28;20041;-69
2021/05/24 04:40:29;;;;;;;5.88;2.35;;;18.30;51.60;;;;;;5041452;28;20163;-69
2021/05/24 04:42:55;;;;;;;4.25;2.15;;;18.30;52.10;;;;;;5035271;28;20107;-69
2021/05/24 04:45:21;;;;;;;8.88;2.30;;;18.50;52.00;;;;;;5042551;28;20033;-69
2021/05/24 04:47:47;;;;;;;6.57;2.55;;;18.50;51.60;;;;;;5033831;28;20124;-69
2021/05/24 04:50:13;;;;;;;7.10;2.78;;;18.40;51.50;;;;;;5036438;28;20579;-68
2021/05/24 04:52:39;;;;;;;4.60;2.13;;;18.40;51.70;;;;;;5032938;28;20545;-68
2021/05/24 04:55:06;;;;;;;3.92;2.00;;;18.50;51.60;;;;;;5053467;28;20498;-69
2021/05/24 04:57:32;;;;;;;7.18;2.65;;;18.40;51.60;;;;;;5030597;28;20095;-69
2021/05/24 04:59:58;;;;;;;6.30;2.00;;;18.40;51.40;;;;;;5037206;28;20452;-68
2021/05/24 05:02:24;;;;;;;9.02;2.47;;;18.50;51.30;;;;;;5033644;28;20033;-69
2021/05/24 05:04:49;;;;;;;6.00;2.22;;;18.50;51.10;;;;;;5041810;28;20033;-68
2021/05/24 05:07:15;;;;;;;5.80;1.92;;;18.60;51.30;;;;;;5025799;28;20159;-68
2021/05/24 05:09:41;;;;;;;3.03;1.67;;;18.50;51.40;;;;;;5039707;28;20045;-68
2021/05/24 05:12:07;;;;;;;4.57;2.20;;;18.60;51.30;;;;;;5035419;28;20041;-67
2021/05/24 05:14:32;;;;;;;5.45;1.80;;;18.60;51.50;;;;;;5042864;28;20036;-68
2021/05/24 05:16:58;;;;;;;4.00;1.98;;;18.60;51.70;;;;;;5038535;28;20132;-68
2021/05/24 05:19:24;;;;;;;8.55;2.88;;;18.60;51.50;;;;;;5036581;28;20056;-68
2021/05/24 05:21:50;;;;;;;5.45;2.33;;;18.60;51.20;;;;;;5051692;28;20030;-68
2021/05/24 05:24:17;;;;;;;9.93;2.88;;;18.60;51.80;;;;;;5048831;28;20424;-68
2021/05/24 05:26:43;;;;;;;7.90;2.97;;;18.60;52.10;;;;;;5038801;28;20107;-68
2021/05/24 05:29:08;;;;;;;6.25;2.67;;;18.70;52.80;;;;;;5034997;28;20045;-68
2021/05/24 05:31:34;;;;;;;5.93;3.00;;;18.60;54.00;;;;;;5040807;28;20040;-69
2021/05/24 05:34:00;;;;;;;10.52;4.25;;;18.50;55.70;;;;;;5034193;28;20161;-68
2021/05/24 05:36:28;;;;;;;8.38;3.78;;;18.40;56.80;;;;;;5037570;28;20079;-68
2021/05/24 05:38:54;;;;;;;11.18;4.10;;;18.40;58.70;;;;;;5032478;28;20030;-68
2021/05/24 05:41:20;;;;;;;12.93;4.20;;;18.30;59.80;;;;;;5034230;28;20418;-68
2021/05/24 05:43:46;;;;;;;8.82;4.95;;;18.30;60.40;;;;;;5035963;28;20067;-68
2021/05/24 05:46:12;;;;;;;8.02;4.55;;;18.20;61.30;;;;;;5034435;28;20076;-68
2021/05/24 05:48:38;;;;;;;10.57;4.55;;;18.30;63.80;;;;;;5035511;28;20094;-68
2021/05/24 05:51:04;;;;;;;9.73;5.03;;;18.10;64.10;;;;;;5041540;28;20041;-69
2021/05/24 05:53:30;;;;;;;10.30;4.50;;;18.00;66.10;;;;;;5035445;28;20041;-68
2021/05/24 05:55:56;;;;;;;11.45;4.82;;;17.90;67.10;;;;;;5036661;28;20067;-68
2021/05/24 05:58:22;;;;;;;10.55;5.18;;;17.90;69.40;;;;;;5038048;28;20112;-67
2021/05/24 06:00:48;;;;;;;9.35;4.43;;;18.00;81.30;;;;;;5035650;28;20104;-67
2021/05/24 06:03:15;;;;;;;8.68;5.03;;;17.80;82.70;;;;;;5038682;28;20036;-67
2021/05/24 06:05:41;;;;;;;9.75;4.78;;;17.90;91.40;;;;;;5021897;28;20073;-67
2021/05/24 06:08:08;;;;;;;12.77;5.80;;;18.10;95.60;;;;;;5035864;28;20033;-67
2021/05/24 06:10:34;;;;;;;7.43;4.53;;;17.80;95.20;;;;;;5031795;28;20498;-68
2021/05/24 06:13:01;;;;;;;11.25;5.63;;;17.60;95.40;;;;;;5038130;28;20044;-68
2021/05/24 06:15:27;;;;;;;25.48;8.18;;;17.40;82.20;;;;;;5036084;28;20453;-67
2021/05/24 06:17:53;;;;;;;9.90;5.75;;;17.60;95.70;;;;;;5037449;28;20033;-68
2021/05/24 06:20:18;;;;;;;11.05;5.47;;;17.60;96.30;;;;;;5031795;28;20037;-67
2021/05/24 06:22:44;;;;;;;12.73;4.95;;;17.60;96.20;;;;;;5036951;28;20044;-67
2021/05/24 06:25:11;;;;;;;23.88;6.57;;;17.50;96.80;;;;;;5033026;28;20045;-67
2021/05/24 06:27:37;;;;;;;29.15;6.30;;;17.50;97.60;;;;;;5032401;28;20049;-66
2021/05/24 06:30:05;;;;;;;9.18;4.95;;;17.50;97.20;;;;;;5034169;28;20044;-67
2021/05/24 06:32:31;;;;;;;6.90;4.70;;;17.60;97.20;;;;;;5039985;28;21314;-67
2021/05/24 06:34:57;;;;;;;6.82;4.45;;;17.40;97.00;;;;;;5042093;28;20037;-67
2021/05/24 06:37:22;;;;;;;8.20;4.60;;;17.30;95.40;;;;;;5035178;28;20033;-67
2021/05/24 06:39:48;;;;;;;7.85;4.80;;;16.80;94.30;;;;;;5036702;28;20083;-67
2021/05/24 06:42:14;;;;;;;6.25;4.68;;;17.20;96.10;;;;;;5032755;28;20398;-66
2021/05/24 06:44:40;;;;;;;10.35;4.72;;;17.30;96.10;;;;;;5037215;28;20052;-67
2021/05/24 06:47:06;;;;;;;7.32;4.72;;;17.20;97.70;;;;;;5035610;28;20033;-64
2021/05/24 06:49:34;;;;;;;7.78;4.85;;;17.20;97.10;;;;;;5054880;28;20045;-67
2021/05/24 06:52:00;;;;;;;6.65;4.75;;;17.30;95.20;;;;;;5034927;28;20030;-67
2021/05/24 06:54:25;;;;;;;9.43;5.82;;;17.40;94.90;;;;;;5037614;28;20033;-68
2021/05/24 06:56:51;;;;;;;12.07;5.30;;;17.50;93.30;;;;;;5026334;28;20052;-68
2021/05/24 06:59:17;;;;;;;7.57;5.50;;;17.40;93.30;;;;;;5035888;28;20068;-67
2021/05/24 07:01:42;;;;;;;7.22;5.22;;;17.50;93.40;;;;;;5021473;28;20494;-68
2021/05/24 07:04:08;;;;;;;7.55;4.82;;;17.40;93.80;;;;;;5022812;28;20044;-67
2021/05/24 07:06:33;;;;;;;8.65;5.45;;;17.40;95.80;;;;;;5044597;28;20407;-67
2021/05/24 07:08:59;;;;;;;10.60;5.53;;;17.30;97.40;;;;;;5041049;28;20041;-67
2021/05/24 07:11:25;;;;;;;7.50;5.55;;;17.30;98.30;;;;;;5044831;28;20041;-67
2021/05/24 07:13:53;;;;;;;9.55;5.55;;;;;;;;;;5041065;28;20111;-67
2021/05/24 07:16:21;;;;;;;5.82;4.38;;;17.30;99.70;;;;;;5042002;28;20036;-67
2021/05/24 07:18:46;;;;;;;7.07;4.75;;;17.10;98.80;;;;;;5036955;28;20116;-67
2021/05/24 07:21:12;;;;;;;7.95;5.50;;;17.20;99.00;;;;;;5042626;28;20128;-67
2021/05/24 07:23:37;;;;;;;26.52;7.50;;;17.20;99.20;;;;;;5036023;28;20041;-68
2021/05/24 07:26:03;;;;;;;9.45;5.47;;;17.30;99.50;;;;;;5040267;28;20068;-68
2021/05/24 07:28:29;;;;;;;6.22;4.18;;;17.20;99.10;;;;;;5039690;28;20071;-68
2021/05/24 07:30:55;;;;;;;4.70;4.05;;;17.10;99.20;;;;;;5040213;28;20057;-69
2021/05/24 07:33:21;;;;;;;4.75;4.25;;;16.90;92.50;;;;;;5037045;28;20107;-68
2021/05/24 07:35:47;;;;;;;5.65;3.85;;;17.00;95.70;;;;;;5042076;28;20064;-69
2021/05/24 07:38:13;;;;;;;7.65;4.60;;;17.00;91.20;;;;;;5051828;28;20077;-68
2021/05/24 07:40:38;;;;;;;7.43;4.53;;;17.10;88.50;;;;;;5046026;28;20052;-68
2021/05/24 07:43:04;;;;;;;4.55;4.10;;;17.00;88.80;;;;;;5033205;28;20048;-69
2021/05/24 07:45:30;;;;;;;4.95;4.45;;;17.00;88.40;;;;;;5042049;28;20037;-70
2021/05/24 07:47:56;;;;;;;5.47;4.20;;;17.00;88.10;;;;;;5039345;28;20450;-70
2021/05/24 07:50:22;;;;;;;5.28;4.00;;;17.10;87.40;;;;;;5043510;28;20047;-69
2021/05/24 07:52:48;;;;;;;7.78;5.07;;;17.10;87.80;;;;;;5040514;28;20099;-69
2021/05/24 07:55:14;;;;;;;8.32;4.68;;;17.20;87.80;;;;;;5032705;28;20472;-64
2021/05/24 07:57:42;;;;;;;5.82;4.95;;;17.10;88.30;;;;;;5036668;28;20098;-68
2021/05/24 08:00:10;;;;;;;5.80;4.07;;;16.90;88.80;;;;;;5038839;28;20045;-68
2021/05/24 08:02:39;;;;;;;4.60;4.00;;;16.90;88.10;;;;;;5038842;28;20033;-69
2021/05/24 08:05:07;;;;;;;4.72;3.35;;;16.90;89.10;;;;;;5034730;28;20029;-69
2021/05/24 08:07:33;;;;;;;3.92;3.47;;;16.90;89.40;;;;;;5038385;28;20118;-68
2021/05/24 08:09:59;;;;;;;4.70;3.15;;;16.80;96.00;;;;;;5030064;28;20150;-70
2021/05/24 08:12:24;;;;;;;5.28;3.25;;;16.80;93.70;;;;;;5040388;28;20136;-69
2021/05/24 08:14:50;;;;;;;5.15;2.92;;;16.90;95.30;;;;;;5038315;28;20041;-69
2021/05/24 08:17:15;;;;;;;3.20;3.00;;;16.80;96.10;;;;;;5037725;28;20037;-69
2021/05/24 08:19:41;;;;;;;5.10;3.03;;;16.80;96.40;;;;;;5069977;28;20044;-69
2021/05/24 08:22:07;;;;;;;4.88;3.00;;;16.90;97.50;;;;;;5044675;28;20479;-69
2021/05/24 08:24:32;;;;;;;5.20;2.92;;;16.90;97.50;;;;;;5042263;28;20045;-71
2021/05/24 08:26:58;;;;;;;6.82;3.40;;;16.80;98.60;;;;;;5036938;28;20049;-70
2021/05/24 08:29:24;;;;;;;5.70;3.40;;;;;;;;;;5040526;28;20483;-70
2021/05/24 08:31:52;;;;;;;4.97;3.00;;;;;;;;;;5035423;28;20038;-70
2021/05/24 08:34:18;;;;;;;3.92;2.95;;;;;;;;;;5041080;28;20178;-70
2021/05/24 08:36:45;;;;;;;3.90;2.50;;;;;;;;;;5038120;28;20514;-70
2021/05/24 08:39:11;;;;;;;6.28;2.72;;;;;;;;;;5042004;28;20098;-69
2021/05/24 08:41:38;;;;;;;2.88;2.67;;;;;;;;;;5056444;28;20044;-69
2021/05/24 08:44:06;;;;;;;5.82;3.92;;;;;;;;;;5044139;28;20124;-70
2021/05/24 08:46:34;;;;;;;10.38;4.95;;;;;;;;;;5038023;28;20029;-69
2021/05/24 08:49:02;;;;;;;4.10;3.70;;;;;;;;;;5043274;28;20117;-70
2021/05/24 08:51:28;;;;;;;5.53;4.00;;;16.30;99.90;;;;;;5042712;28;20068;-69
2021/05/24 08:53:54;;;;;;;4.20;3.55;;;16.50;99.90;;;;;;5056687;28;20063;-70
2021/05/24 08:56:21;;;;;;;6.18;3.22;;;;;;;;;;5038840;28;20040;-70
2021/05/24 08:58:46;;;;;;;2.63;2.28;;;16.50;99.90;;;;;;5041786;28;20037;-69
2021/05/24 09:01:12;;;;;;;5.97;3.40;;;16.40;90.40;;;;;;5035011;28;20037;-69
2021/05/24 09:03:41;;;;;;;4.07;3.30;;;16.50;89.60;;;;;;5038974;28;20036;-69
2021/05/24 09:06:10;;;;;;;4.95;3.25;;;16.60;87.70;;;;;;5039628;28;20056;-68
2021/05/24 09:08:43;;;;;;;5.00;3.67;;;16.50;87.80;;;;;;5039214;28;20484;-70
2021/05/24 09:11:32;;;;;;;3.97;3.15;;;16.60;88.20;;;;;;5036232;28;20045;-67
2021/05/24 09:13:57;;;;;;;4.45;3.45;;;16.70;86.90;;;;;;5043973;28;20033;-70
2021/05/24 09:16:41;;;;;;;4.18;3.83;;;16.70;85.80;;;;;;5039592;28;20063;-71
2021/05/24 09:19:19;;;;;;;5.83;4.83;;;16.70;86.50;;;;;;5039365;28;20044;-70
2021/05/24 09:22:00;;;;;;;7.32;5.03;;;16.70;85.70;;;;;;5054506;28;20029;-71
2021/05/24 09:24:30;;;;;;;5.60;4.97;;;16.50;85.60;;;;;;5039522;28;20498;-71
2021/05/24 09:27:01;;;;;;;4.38;3.97;;;16.60;86.30;;;;;;5036790;28;20037;-71
2021/05/24 09:29:40;;;;;;;6.35;3.28;;;16.70;85.50;;;;;;5045518;28;20147;-70
2021/05/24 09:32:25;;;;;;;4.45;3.80;;;16.70;84.30;;;;;;5042516;28;20036;-71
2021/05/24 09:34:52;;;;;;;6.30;4.38;;;16.70;85.10;;;;;;5018659;28;20041;-71
2021/05/24 09:37:29;;;;;;;4.82;3.55;;;16.70;84.70;;;;;;5038865;28;20021;-71
2021/05/24 09:39:55;;;;;;;5.43;4.10;;;16.60;86.20;;;;;;5044637;28;20490;-71
2021/05/24 09:42:21;;;;;;;4.55;3.92;;;16.70;85.30;;;;;;5033293;28;20116;-71
2021/05/24 09:44:53;;;;;;;5.88;4.03;;;16.70;84.70;;;;;;5040430;28;20033;-70
2021/05/24 09:47:33;;;;;;;7.90;4.80;;;16.70;86.10;;;;;;5037859;28;20045;-70
2021/05/24 09:50:11;;;;;;;4.88;4.10;;;16.70;87.10;;;;;;5043891;28;20037;-70
2021/05/24 09:52:39;;;;;;;5.88;4.20;;;16.70;85.50;;;;;;5024572;28;20501;-70
2021/05/24 09:55:19;;;;;;;5.20;4.30;;;16.70;84.10;;;;;;5035122;28;20065;-71
2021/05/24 09:58:06;;;;;;;4.28;3.95;;;16.80;87.60;;;;;;5015455;28;20049;-70
2021/05/24 10:00:48;;;;;;;4.75;4.25;;;16.70;86.10;;;;;;5068799;28;20065;-71
2021/05/24 10:03:15;;;;;;;4.32;3.92;;;16.70;85.10;;;;;;5001613;28;20029;-70
2021/05/24 10:05:43;;;;;;;3.90;3.60;;;16.70;85.50;;;;;;5057551;28;20187;-71
2021/05/24 10:08:09;;;;;;;4.25;3.63;;;16.80;84.40;;;;;;5040810;28;20037;-70
2021/05/24 10:10:36;;;;;;;4.30;4.00;;;16.70;83.70;;;;;;5039805;28;20045;-71
2021/05/24 10:13:02;;;;;;;5.10;4.60;;;16.80;85.10;;;;;;5032280;28;20555;-70
2021/05/24 10:15:29;;;;;;;4.25;3.85;;;16.70;85.40;;;;;;5042427;28;20056;-70
2021/05/24 10:18:02;;;;;;;5.40;4.80;;;16.70;85.50;;;;;;5041533;28;20730;-70
2021/05/24 10:20:29;;;;;;;4.30;3.75;;;16.70;85.50;;;;;;5041020;28;20052;-70
2021/05/24 10:22:55;;;;;;;3.92;2.97;;;16.60;86.00;;;;;;5038969;28;20033;-70
2021/05/24 10:25:21;;;;;;;3.78;3.47;;;16.60;85.40;;;;;;5038468;28;20427;-70
2021/05/24 10:27:48;;;;;;;4.88;3.90;;;16.60;85.80;;;;;;5040165;28;20057;-70
2021/05/24 10:30:14;;;;;;;4.72;3.90;;;16.60;85.70;;;;;;5038412;28;20038;-70
2021/05/24 10:33:01;;;;;;;3.85;3.53;;;16.60;85.70;;;;;;5041259;28;20554;-70
2021/05/24 10:35:34;;;;;;;4.15;3.85;;;16.60;86.80;;;;;;5034289;28;20436;-70
2021/05/24 10:38:19;;;;;;;5.75;4.45;;;16.60;85.70;;;;;;5048983;28;20037;-70
2021/05/24 10:40:45;;;;;;;3.95;3.65;;;16.60;87.20;;;;;;5019716;28;20052;-70
2021/05/24 10:43:15;;;;;;;4.55;4.15;;;16.60;84.90;;;;;;5042769;28;20404;-70
2021/05/24 10:45:40;;;;;;;3.97;3.50;;;16.60;85.90;;;;;;5034850;28;20064;-70
2021/05/24 10:48:06;;;;;;;3.55;3.25;;;16.60;85.70;;;;;;5043895;28;20056;-71
2021/05/24 10:50:33;;;;;;;4.60;3.35;;;16.60;87.10;;;;;;5043020;28;20410;-71
2021/05/24 10:52:59;;;;;;;3.92;3.53;;;16.60;87.30;;;;;;5043470;28;20085;-70
2021/05/24 10:55:25;;;;;;;6.15;4.68;;;16.60;89.30;;;;;;5042344;28;21781;-71
2021/05/24 10:58:12;;;;;;;4.32;3.42;;;16.70;90.10;;;;;;5059484;28;20147;-71
2021/05/24 11:00:58;;;;;;;4.97;4.07;;;16.70;90.10;;;;;;5036097;28;20148;-69
2021/05/24 11:03:24;;;;;;;4.85;4.00;;;16.80;90.90;;;;;;5040853;28;20131;-70
2021/05/24 11:06:07;;;;;;;4.30;3.83;;;16.70;89.20;;;;;;5044302;28;21988;-69
2021/05/24 11:08:35;;;;;;;5.15;4.07;;;16.80;90.30;;;;;;5043891;28;20036;-71
2021/05/24 11:11:23;;;;;;;5.15;4.50;;;16.80;88.30;;;;;;5037558;28;22138;-71
2021/05/24 11:13:59;;;;;;;5.47;4.60;;;16.80;91.10;;;;;;5018125;28;20510;-70
2021/05/24 11:16:25;;;;;;;4.65;4.20;;;16.70;91.10;;;;;;5040555;28;20045;-70
2021/05/24 11:19:03;;;;;;;5.88;4.35;;;16.70;90.70;;;;;;5037614;28;20099;-71
2021/05/24 11:21:29;;;;;;;4.50;4.07;;;16.80;91.80;;;;;;5050939;28;20064;-71
2021/05/24 11:26:37;;;;;;;4.95;4.45;;;16.70;91.00;;;;;;5042907;28;20082;-70
2021/05/24 11:29:17;;;;;;;4.63;4.20;;;16.70;91.70;;;;;;5042719;28;20123;-71
2021/05/24 11:31:51;;;;;;;5.05;4.15;;;16.70;92.20;;;;;;4995837;28;20124;-70
2021/05/24 11:34:35;;;;;;;5.35;4.18;;;16.70;92.00;;;;;;5043780;28;20048;-70
2021/05/24 11:37:04;;;;;;;5.15;4.65;;;16.70;93.20;;;;;;5035639;28;20129;-70
2021/05/24 11:39:32;;;;;;;5.93;5.32;;;16.60;92.80;;;;;;5041517;28;20025;-70
2021/05/24 11:42:05;;;;;;;4.47;4.07;;;16.70;92.20;;;;;;5034323;28;20033;-70
2021/05/24 11:44:39;;;;;;;4.45;4.07;;;16.60;92.00;;;;;;5043252;28;20044;-70
2021/05/24 11:47:08;;;;;;;6.70;4.90;;;16.70;92.50;;;;;;5038077;28;20044;-70
2021/05/24 11:49:38;;;;;;;5.30;4.75;;;16.70;92.00;;;;;;5041861;28;20536;-70
2021/05/24 11:53:00;;;;;;;5.75;4.82;;;16.70;92.00;;;;;;5044767;28;20055;-70
2021/05/24 11:55:26;;;;;;;4.28;3.13;;;16.70;94.80;;;;;;4977908;28;20060;-75
2021/05/24 11:57:51;;;;;;;4.93;2.83;;;16.70;91.70;;;;;;5037310;28;20486;-67
2021/05/24 12:00:20;;;;;;;4.53;3.90;;;16.70;91.40;;;;;;5034214;28;20046;-66
2021/05/24 12:02:46;;;;;;;4.50;3.97;;;16.70;91.20;;;;;;5040226;28;20122;-63
2021/05/24 12:05:18;;;;;;;4.68;3.70;;;16.70;91.90;;;;;;5035990;28;20037;-61
2021/05/24 12:07:43;;;;;;;5.10;3.58;;;16.70;91.80;;;;;;5040662;28;20045;-62
2021/05/24 12:10:10;;;;;;;3.33;3.00;;;16.70;91.30;;;;;;5034884;28;20499;-61
2021/05/24 12:12:39;;;;;;;4.75;4.20;;;16.80;91.60;;;;;;5043189;28;20048;-74
2021/05/24 12:15:08;;;;;;;5.47;4.10;;;16.70;92.40;;;;;;5040258;28;20440;-73
2021/05/24 12:17:35;;;;;;;4.90;4.25;;;16.80;92.80;;;;;;5047604;28;20041;-73
2021/05/24 12:20:05;;;;;;;3.58;3.28;;;16.90;92.20;;;;;;5036495;28;20040;-73
2021/05/24 12:22:35;;;;;;;4.40;3.30;;;16.90;91.70;;;;;;5038928;28;20049;-73
2021/05/24 12:25:01;;;;;;;4.15;3.30;;;16.90;90.70;;;;;;5041414;28;20063;-74
2021/05/24 12:27:27;;;;;;;4.68;4.15;;;16.80;91.50;;;;;;5045147;28;20546;-73
2021/05/24 12:30:18;;;;;;;4.35;4.00;;;17.00;92.20;;;;;;5043204;28;20041;-74
2021/05/24 12:33:02;;;;;;;4.82;4.32;;;17.00;91.50;;;;;;5020215;28;20041;-73
2021/05/24 12:35:33;;;;;;;5.00;3.80;;;16.90;92.50;;;;;;5035525;28;20076;-74
2021/05/24 12:38:33;;;;;;;4.35;3.80;;;16.80;95.40;;;;;;5040860;28;20077;-73
2021/05/24 12:41:04;;;;;;;4.43;3.55;;;16.70;98.80;;;;;;5014953;28;20038;-73
2021/05/24 12:43:30;;;;;;;5.68;4.03;;;16.70;99.90;;;;;;5039726;28;20479;-73
2021/05/24 12:45:56;;;;;;;6.25;4.28;;;16.60;99.90;;;;;;5039019;28;20029;-73
2021/05/24 12:48:30;;;;;;;7.85;4.68;;;16.60;98.60;;;;;;5044410;28;20040;-73
2021/05/24 12:50:58;;;;;;;3.50;3.22;;;16.70;97.00;;;;;;5041216;28;20045;-74
2021/05/24 12:53:25;;;;;;;4.55;4.05;;;16.70;94.60;;;;;;5042002;28;20033;-73
2021/05/24 12:55:52;;;;;;;5.95;4.10;;;16.70;94.60;;;;;;5042156;28;20033;-73
2021/05/24 12:58:22;;;;;;;3.70;3.40;;;16.70;94.70;;;;;;5042053;28;20526;-72
2021/05/24 13:00:58;;;;;;;5.32;3.97;;;16.70;94.70;;;;;;5037327;28;20037;-73